Terminal Aerodrome Forecast
Issued by NWS Charleston, WV

Current Version | Previous Version | Graphics & Text | Print | Product List | Glossary On
Versions: 1 2 3 4 5 6 7 8 9 10 11 12 13 14 15 16 17 18 19 20 21 22 23 24 25 26 27 28 29
000
FTUS41 KRLX 151255 AAA
TAFEKN
TAF AMD
KEKN 151255Z 1513/1612 00000KT 4SM BR SKC
     FM151400 14003KT P6SM FEW250
     FM151800 16007KT P6SM SCT200
     FM160300 VRB03KT 4SM -SHRA BR BKN035=

USA.gov is the U.S. government's official web portal to all federal, state and local government web resources and services.